CSN0919 ZPPP-ZJSY
Flight info
| Callsign | CSN0919 |
|---|---|
| Flight time | N/A |
| Altitude | 30100 |
| Route | ZPPP/22R K0911S0920 LXI1Y LXI A599 BSE R339 BHY W70 NYB G221 WL DCT ZJSY/08 |
| Aircraft | A359/M-ICAO/FAA |
Departure
| Time | N/A |
|---|---|
| Airport | Kunming Changshui International Airport (ZPPP) |
Arrival
| Time | 2026-05-06 12:51 |
|---|---|
| Airport | Sanya Phoenix International Airport (ZJSY) |
| Time | Latitude | Longitude | Altitude | Speed | Heading |
|---|---|---|---|---|---|
| 2026-05-06 11:31 | 24.43851 | 104.22633 | 29936 ft | 512 kts | 105° |
| 2026-05-06 11:31 | 24.42207 | 104.30249 | 29935 ft | 513 kts | 105° |
| 2026-05-06 11:32 | 24.40569 | 104.37823 | 29908 ft | 513 kts | 105° |
| 2026-05-06 11:32 | 24.38918 | 104.45438 | 29905 ft | 513 kts | 105° |
| 2026-05-06 11:33 | 24.37263 | 104.53050 | 29873 ft | 513 kts | 105° |
| 2026-05-06 11:33 | 24.35606 | 104.60662 | 29877 ft | 513 kts | 105° |
| 2026-05-06 11:34 | 24.33948 | 104.68280 | 29856 ft | 513 kts | 105° |
| 2026-05-06 11:34 | 24.32282 | 104.75885 | 29858 ft | 513 kts | 105° |
| 2026-05-06 11:35 | 24.30611 | 104.83493 | 29852 ft | 513 kts | 105° |
| 2026-05-06 11:35 | 24.28938 | 104.91096 | 29857 ft | 513 kts | 105° |
| 2026-05-06 11:36 | 24.27260 | 104.98695 | 29829 ft | 513 kts | 105° |
| 2026-05-06 11:36 | 24.25581 | 105.06287 | 29846 ft | 511 kts | 106° |
| 2026-05-06 11:37 | 24.23932 | 105.13854 | 29845 ft | 510 kts | 106° |
| 2026-05-06 11:37 | 24.22250 | 105.21404 | 29839 ft | 509 kts | 106° |
| 2026-05-06 11:38 | 24.20491 | 105.28921 | 29842 ft | 509 kts | 107° |
| 2026-05-06 11:38 | 24.18651 | 105.36348 | 29850 ft | 509 kts | 107° |
| 2026-05-06 11:39 | 24.16808 | 105.43831 | 29849 ft | 508 kts | 107° |
| 2026-05-06 11:39 | 24.14984 | 105.51308 | 29848 ft | 508 kts | 107° |
| 2026-05-06 11:40 | 24.13166 | 105.58777 | 29849 ft | 508 kts | 107° |
| 2026-05-06 11:40 | 24.11342 | 105.66244 | 29848 ft | 508 kts | 107° |
| 2026-05-06 11:41 | 24.09551 | 105.73733 | 29850 ft | 509 kts | 105° |
| 2026-05-06 11:41 | 24.08042 | 105.81310 | 29848 ft | 510 kts | 103° |
| 2026-05-06 11:42 | 24.06621 | 105.88904 | 29851 ft | 509 kts | 103° |
| 2026-05-06 11:42 | 24.05159 | 105.96490 | 29855 ft | 509 kts | 104° |
| 2026-05-06 11:43 | 24.03861 | 106.03038 | 29852 ft | 510 kts | 104° |
| 2026-05-06 11:43 | 24.02349 | 106.10581 | 29852 ft | 512 kts | 104° |
| 2026-05-06 11:44 | 24.02290 | 106.10877 | 29851 ft | 512 kts | 104° |
| 2026-05-06 11:45 | 24.00986 | 106.17374 | 29849 ft | 512 kts | 104° |
| 2026-05-06 11:45 | 23.99463 | 106.24937 | 29858 ft | 512 kts | 104° |
| 2026-05-06 11:46 | 23.97931 | 106.32539 | 29855 ft | 512 kts | 104° |
| 2026-05-06 11:46 | 23.96400 | 106.40131 | 29865 ft | 511 kts | 104° |
| 2026-05-06 11:47 | 23.94867 | 106.47704 | 29866 ft | 510 kts | 104° |
| 2026-05-06 11:47 | 23.93290 | 106.55268 | 29869 ft | 509 kts | 107° |
| 2026-05-06 11:48 | 23.90320 | 106.62198 | 29873 ft | 502 kts | 128° |
| 2026-05-06 11:48 | 23.85826 | 106.67979 | 29883 ft | 498 kts | 136° |
| 2026-05-06 11:49 | 23.81079 | 106.73498 | 29880 ft | 498 kts | 137° |
| 2026-05-06 11:49 | 23.76306 | 106.79000 | 29876 ft | 499 kts | 136° |
| 2026-05-06 11:50 | 23.72363 | 106.83584 | 29885 ft | 498 kts | 136° |
| 2026-05-06 11:50 | 23.66828 | 106.90052 | 29890 ft | 498 kts | 136° |
| 2026-05-06 11:51 | 23.62897 | 106.94648 | 29892 ft | 498 kts | 136° |
| 2026-05-06 11:51 | 23.57402 | 107.01062 | 29893 ft | 498 kts | 136° |
| 2026-05-06 11:52 | 23.52673 | 107.06574 | 29897 ft | 498 kts | 136° |
| 2026-05-06 11:52 | 23.48709 | 107.11189 | 29902 ft | 498 kts | 136° |
| 2026-05-06 11:53 | 23.43971 | 107.16698 | 29903 ft | 497 kts | 136° |
| 2026-05-06 11:53 | 23.39239 | 107.22195 | 29909 ft | 496 kts | 136° |
| 2026-05-06 11:54 | 23.34520 | 107.27669 | 29917 ft | 496 kts | 136° |
| 2026-05-06 11:54 | 23.29796 | 107.33144 | 29920 ft | 496 kts | 136° |
| 2026-05-06 11:55 | 23.25107 | 107.38573 | 29920 ft | 496 kts | 136° |
| 2026-05-06 11:55 | 23.20378 | 107.44043 | 29922 ft | 497 kts | 136° |
| 2026-05-06 11:56 | 23.15647 | 107.49510 | 29925 ft | 497 kts | 136° |
| 2026-05-06 11:56 | 23.10910 | 107.54973 | 29926 ft | 496 kts | 136° |
| 2026-05-06 11:57 | 23.06172 | 107.60433 | 29928 ft | 496 kts | 136° |
| 2026-05-06 11:57 | 23.01438 | 107.65897 | 29929 ft | 497 kts | 136° |
| 2026-05-06 11:58 | 22.96696 | 107.71358 | 29930 ft | 496 kts | 136° |
| 2026-05-06 11:58 | 22.91951 | 107.76810 | 29929 ft | 498 kts | 136° |
| 2026-05-06 11:59 | 22.87211 | 107.82251 | 29929 ft | 500 kts | 136° |
| 2026-05-06 11:59 | 22.82433 | 107.87735 | 29930 ft | 500 kts | 136° |
| 2026-05-06 12:00 | 22.77652 | 107.93215 | 29934 ft | 500 kts | 136° |
| 2026-05-06 12:00 | 22.72871 | 107.98690 | 29933 ft | 500 kts | 136° |
| 2026-05-06 12:01 | 22.68087 | 108.04163 | 29928 ft | 499 kts | 136° |
| 2026-05-06 12:01 | 22.63311 | 108.09621 | 29930 ft | 498 kts | 136° |
| 2026-05-06 12:02 | 22.58546 | 108.15060 | 29928 ft | 498 kts | 136° |
| 2026-05-06 12:02 | 22.53963 | 108.20691 | 29929 ft | 499 kts | 132° |
| 2026-05-06 12:03 | 22.49571 | 108.26511 | 29949 ft | 499 kts | 131° |
| 2026-05-06 12:03 | 22.45156 | 108.32316 | 29949 ft | 499 kts | 132° |
| 2026-05-06 12:04 | 22.40710 | 108.38071 | 29957 ft | 499 kts | 132° |
| 2026-05-06 12:04 | 22.36239 | 108.43815 | 29946 ft | 499 kts | 132° |
| 2026-05-06 12:05 | 22.31770 | 108.49547 | 29953 ft | 497 kts | 132° |
| 2026-05-06 12:05 | 22.27312 | 108.55265 | 29955 ft | 497 kts | 132° |
| 2026-05-06 12:06 | 22.22889 | 108.60932 | 29962 ft | 497 kts | 132° |
| 2026-05-06 12:06 | 22.18435 | 108.66632 | 29960 ft | 497 kts | 132° |
| 2026-05-06 12:07 | 22.13976 | 108.72333 | 29963 ft | 497 kts | 132° |
| 2026-05-06 12:07 | 22.09521 | 108.78033 | 29962 ft | 497 kts | 132° |
| 2026-05-06 12:08 | 22.05072 | 108.83741 | 29959 ft | 497 kts | 132° |
| 2026-05-06 12:08 | 22.00627 | 108.89442 | 29967 ft | 497 kts | 132° |
| 2026-05-06 12:09 | 21.96183 | 108.95132 | 29963 ft | 496 kts | 132° |
| 2026-05-06 12:09 | 21.91736 | 109.00820 | 29971 ft | 495 kts | 132° |
| 2026-05-06 12:10 | 21.87303 | 109.06482 | 29985 ft | 495 kts | 132° |
| 2026-05-06 12:10 | 21.82865 | 109.12154 | 29978 ft | 495 kts | 131° |
| 2026-05-06 12:11 | 21.78439 | 109.17837 | 29973 ft | 495 kts | 131° |
| 2026-05-06 12:11 | 21.74046 | 109.23478 | 29978 ft | 495 kts | 131° |
| 2026-05-06 12:12 | 21.69590 | 109.29190 | 29976 ft | 495 kts | 132° |
| 2026-05-06 12:12 | 21.65188 | 109.34824 | 29979 ft | 495 kts | 132° |
| 2026-05-06 12:13 | 21.60733 | 109.40483 | 29969 ft | 495 kts | 134° |
| 2026-05-06 12:13 | 21.55452 | 109.45110 | 29975 ft | 488 kts | 150° |
| 2026-05-06 12:14 | 21.49624 | 109.48861 | 29976 ft | 489 kts | 152° |
| 2026-05-06 12:14 | 21.43703 | 109.52475 | 29984 ft | 490 kts | 153° |
| 2026-05-06 12:15 | 21.37780 | 109.56092 | 29994 ft | 490 kts | 153° |
| 2026-05-06 12:15 | 21.31711 | 109.59344 | 30001 ft | 486 kts | 163° |
| 2026-05-06 12:16 | 21.25155 | 109.60863 | 29990 ft | 481 kts | 174° |
| 2026-05-06 12:16 | 21.18521 | 109.61852 | 29989 ft | 481 kts | 175° |
| 2026-05-06 12:17 | 21.11881 | 109.62763 | 29990 ft | 481 kts | 175° |
| 2026-05-06 12:17 | 21.05241 | 109.63696 | 29989 ft | 481 kts | 175° |
| 2026-05-06 12:18 | 20.98652 | 109.64644 | 29991 ft | 481 kts | 175° |
| 2026-05-06 12:18 | 20.92016 | 109.65605 | 29993 ft | 481 kts | 175° |
| 2026-05-06 12:19 | 20.85389 | 109.66565 | 29992 ft | 481 kts | 175° |
| 2026-05-06 12:19 | 20.78756 | 109.67523 | 29993 ft | 481 kts | 175° |
| 2026-05-06 12:20 | 20.72129 | 109.68479 | 29994 ft | 481 kts | 175° |
| 2026-05-06 12:20 | 20.65495 | 109.69435 | 29995 ft | 481 kts | 175° |
| 2026-05-06 12:21 | 20.58860 | 109.70390 | 29989 ft | 481 kts | 174° |
| 2026-05-06 12:21 | 20.52271 | 109.71668 | 29989 ft | 485 kts | 165° |
| 2026-05-06 12:22 | 20.49126 | 109.73025 | 29992 ft | 488 kts | 154° |
| 2026-05-06 12:22 | 20.46249 | 109.74950 | 29994 ft | 490 kts | 145° |
| 2026-05-06 12:22 | 20.42044 | 109.78408 | 29990 ft | 491 kts | 142° |
| 2026-05-06 12:23 | 20.36773 | 109.83043 | 29991 ft | 491 kts | 141° |
| 2026-05-06 12:23 | 20.31512 | 109.87686 | 29993 ft | 491 kts | 142° |
| 2026-05-06 12:24 | 20.26224 | 109.92296 | 29992 ft | 491 kts | 142° |
| 2026-05-06 12:24 | 20.20924 | 109.96886 | 29994 ft | 491 kts | 142° |
| 2026-05-06 12:25 | 20.15619 | 110.01471 | 29994 ft | 491 kts | 142° |
| 2026-05-06 12:25 | 20.10319 | 110.06048 | 29994 ft | 491 kts | 142° |
| 2026-05-06 12:26 | 20.04476 | 110.09688 | 29989 ft | 487 kts | 162° |
| 2026-05-06 12:26 | 20.01203 | 110.10572 | 29989 ft | 483 kts | 174° |
| 2026-05-06 12:26 | 19.97862 | 110.10720 | 29990 ft | 480 kts | 186° |
| 2026-05-06 12:27 | 19.94594 | 110.10134 | 29989 ft | 476 kts | 198° |
| 2026-05-06 12:27 | 19.91492 | 110.08935 | 29991 ft | 474 kts | 204° |
| 2026-05-06 12:27 | 19.85507 | 110.06093 | 29990 ft | 474 kts | 207° |
| 2026-05-06 12:28 | 19.79541 | 110.03119 | 29989 ft | 474 kts | 207° |
| 2026-05-06 12:28 | 19.73552 | 110.00180 | 29989 ft | 474 kts | 206° |
| 2026-05-06 12:29 | 19.67539 | 109.97274 | 29992 ft | 474 kts | 206° |
| 2026-05-06 12:29 | 19.61535 | 109.94386 | 29992 ft | 474 kts | 206° |
| 2026-05-06 12:30 | 19.55528 | 109.91501 | 29990 ft | 474 kts | 206° |
| 2026-05-06 12:30 | 19.49516 | 109.88613 | 29856 ft | 481 kts | 206° |
| 2026-05-06 12:31 | 19.46445 | 109.87136 | 29633 ft | 483 kts | 206° |
| 2026-05-06 12:31 | 19.43409 | 109.85680 | 29108 ft | 475 kts | 206° |
| 2026-05-06 12:31 | 19.40408 | 109.84242 | 28386 ft | 472 kts | 206° |
| 2026-05-06 12:31 | 19.37426 | 109.82814 | 27689 ft | 468 kts | 206° |
| 2026-05-06 12:32 | 19.34465 | 109.81408 | 26979 ft | 465 kts | 206° |
| 2026-05-06 12:32 | 19.31529 | 109.80017 | 26302 ft | 461 kts | 206° |
| 2026-05-06 12:32 | 19.28612 | 109.78635 | 25621 ft | 457 kts | 206° |
| 2026-05-06 12:32 | 19.25715 | 109.77263 | 24960 ft | 454 kts | 206° |
| 2026-05-06 12:33 | 19.22883 | 109.75923 | 24314 ft | 450 kts | 206° |
| 2026-05-06 12:33 | 19.20041 | 109.74552 | 23646 ft | 447 kts | 206° |
| 2026-05-06 12:33 | 19.17222 | 109.73185 | 22897 ft | 444 kts | 206° |
| 2026-05-06 12:33 | 19.14429 | 109.71834 | 22207 ft | 438 kts | 206° |
| 2026-05-06 12:34 | 19.11676 | 109.70505 | 21558 ft | 432 kts | 206° |
| 2026-05-06 12:34 | 19.08956 | 109.69193 | 20908 ft | 427 kts | 206° |
| 2026-05-06 12:34 | 19.06268 | 109.67898 | 20254 ft | 422 kts | 206° |
| 2026-05-06 12:34 | 19.03608 | 109.66616 | 19589 ft | 418 kts | 206° |
| 2026-05-06 12:35 | 19.00976 | 109.65350 | 18930 ft | 413 kts | 206° |
| 2026-05-06 12:35 | 18.98369 | 109.64096 | 18272 ft | 410 kts | 206° |
| 2026-05-06 12:35 | 18.95785 | 109.62853 | 17539 ft | 406 kts | 206° |
| 2026-05-06 12:35 | 18.93230 | 109.61625 | 16856 ft | 401 kts | 206° |
| 2026-05-06 12:36 | 18.90709 | 109.60412 | 16192 ft | 396 kts | 206° |
| 2026-05-06 12:36 | 18.88220 | 109.59214 | 15532 ft | 391 kts | 206° |
| 2026-05-06 12:36 | 18.85757 | 109.58032 | 14873 ft | 387 kts | 206° |
| 2026-05-06 12:36 | 18.83317 | 109.56862 | 14218 ft | 382 kts | 206° |
| 2026-05-06 12:37 | 18.80911 | 109.55708 | 13544 ft | 378 kts | 206° |
| 2026-05-06 12:37 | 18.78531 | 109.54566 | 12865 ft | 373 kts | 206° |
| 2026-05-06 12:37 | 18.76204 | 109.53395 | 12188 ft | 368 kts | 209° |
| 2026-05-06 12:37 | 18.74034 | 109.52007 | 11522 ft | 363 kts | 214° |
| 2026-05-06 12:38 | 18.71961 | 109.50555 | 11214 ft | 349 kts | 214° |
| 2026-05-06 12:38 | 18.70001 | 109.49171 | 11089 ft | 330 kts | 215° |
| 2026-05-06 12:38 | 18.68163 | 109.47872 | 10973 ft | 313 kts | 215° |
| 2026-05-06 12:38 | 18.66395 | 109.46624 | 10847 ft | 299 kts | 215° |
| 2026-05-06 12:39 | 18.64708 | 109.45432 | 10721 ft | 285 kts | 214° |
| 2026-05-06 12:39 | 18.63092 | 109.44293 | 10596 ft | 275 kts | 214° |
| 2026-05-06 12:39 | 18.62020 | 109.43538 | 10508 ft | 274 kts | 214° |
| 2026-05-06 12:39 | 18.59927 | 109.42063 | 10204 ft | 273 kts | 214° |
| 2026-05-06 12:40 | 18.58353 | 109.40953 | 9896 ft | 273 kts | 214° |
| 2026-05-06 12:40 | 18.57264 | 109.40185 | 9734 ft | 284 kts | 214° |
| 2026-05-06 12:40 | 18.55062 | 109.38633 | 9452 ft | 286 kts | 214° |
| 2026-05-06 12:40 | 18.53940 | 109.37843 | 9070 ft | 287 kts | 214° |
| 2026-05-06 12:41 | 18.52277 | 109.36674 | 8969 ft | 287 kts | 214° |
| 2026-05-06 12:41 | 18.50635 | 109.35517 | 8107 ft | 287 kts | 214° |
| 2026-05-06 12:41 | 18.48967 | 109.34344 | 7844 ft | 285 kts | 214° |
| 2026-05-06 12:41 | 18.47340 | 109.33202 | 7537 ft | 284 kts | 214° |
| 2026-05-06 12:42 | 18.45675 | 109.32033 | 7183 ft | 282 kts | 214° |
| 2026-05-06 12:42 | 18.44070 | 109.30903 | 6843 ft | 281 kts | 213° |
| 2026-05-06 12:42 | 18.42443 | 109.29761 | 6495 ft | 281 kts | 214° |
| 2026-05-06 12:42 | 18.40812 | 109.28615 | 6127 ft | 282 kts | 214° |
| 2026-05-06 12:43 | 18.39296 | 109.27320 | 5761 ft | 281 kts | 228° |
| 2026-05-06 12:43 | 18.38405 | 109.25537 | 5526 ft | 272 kts | 255° |
| 2026-05-06 12:43 | 18.38079 | 109.23627 | 5401 ft | 259 kts | 262° |
| 2026-05-06 12:43 | 18.37854 | 109.21791 | 5266 ft | 249 kts | 262° |
| 2026-05-06 12:44 | 18.37630 | 109.19997 | 5030 ft | 246 kts | 261° |
| 2026-05-06 12:44 | 18.37117 | 109.18293 | 4762 ft | 244 kts | 238° |
| 2026-05-06 12:44 | 18.35923 | 109.17067 | 4460 ft | 240 kts | 205° |
| 2026-05-06 12:44 | 18.34330 | 109.16687 | 4196 ft | 237 kts | 178° |
| 2026-05-06 12:45 | 18.32692 | 109.16846 | 3952 ft | 235 kts | 169° |
| 2026-05-06 12:45 | 18.31085 | 109.17098 | 3678 ft | 232 kts | 169° |
| 2026-05-06 12:45 | 18.28351 | 109.18362 | 3279 ft | 210 kts | 120° |
| 2026-05-06 12:46 | 18.27845 | 109.19757 | 3166 ft | 199 kts | 105° |
| 2026-05-06 12:46 | 18.27735 | 109.21163 | 3081 ft | 188 kts | 88° |
| 2026-05-06 12:46 | 18.27882 | 109.22491 | 3004 ft | 178 kts | 84° |
| 2026-05-06 12:46 | 18.28033 | 109.23749 | 2953 ft | 167 kts | 85° |
| 2026-05-06 12:47 | 18.28175 | 109.24917 | 2815 ft | 158 kts | 85° |
| 2026-05-06 12:47 | 18.28320 | 109.26062 | 2566 ft | 158 kts | 85° |
| 2026-05-06 12:47 | 18.28468 | 109.27200 | 2343 ft | 155 kts | 84° |
| 2026-05-06 12:47 | 18.28612 | 109.28312 | 2139 ft | 152 kts | 84° |
| 2026-05-06 12:48 | 18.28753 | 109.29393 | 1957 ft | 150 kts | 85° |
| 2026-05-06 12:48 | 18.28894 | 109.30480 | 1757 ft | 147 kts | 84° |
| 2026-05-06 12:48 | 18.29030 | 109.31524 | 1573 ft | 145 kts | 84° |
| 2026-05-06 12:48 | 18.29167 | 109.32569 | 1379 ft | 143 kts | 85° |
| 2026-05-06 12:49 | 18.29298 | 109.33574 | 1200 ft | 134 kts | 85° |
| 2026-05-06 12:49 | 18.29422 | 109.34540 | 968 ft | 131 kts | 83° |
| 2026-05-06 12:49 | 18.29450 | 109.34748 | 949 ft | 131 kts | 84° |
| 2026-05-06 12:49 | 18.29508 | 109.35205 | 896 ft | 131 kts | 82° |
| 2026-05-06 12:50 | 18.29684 | 109.36124 | 770 ft | 130 kts | 83° |
| 2026-05-06 12:50 | 18.29819 | 109.37072 | 702 ft | 130 kts | 83° |
| 2026-05-06 12:50 | 18.29923 | 109.38031 | 525 ft | 132 kts | 89° |
| 2026-05-06 12:50 | 18.30026 | 109.38996 | 305 ft | 133 kts | 81° |
| 2026-05-06 12:51 | 18.30135 | 109.39962 | 127 ft | 133 kts | 85° |
| 2026-05-06 12:51 | 18.30248 | 109.40906 | 104 ft | 124 kts | 82° |
| 2026-05-06 12:51 | 18.30335 | 109.41572 | 110 ft | 51 kts | 82° |
| 2026-05-06 12:51 | 18.30380 | 109.41889 | 107 ft | 19 kts | 81° |
| 2026-05-06 12:52 | 18.30423 | 109.42059 | 106 ft | 34 kts | 66° |
| 2026-05-06 12:52 | 18.30542 | 109.42266 | 112 ft | 10 kts | 15° |
| 2026-05-06 12:52 | 18.30617 | 109.42198 | 117 ft | 19 kts | 286° |
| 2026-05-06 12:52 | 18.30573 | 109.42027 | 116 ft | 35 kts | 256° |
| 2026-05-06 12:53 | 18.30527 | 109.41709 | 120 ft | 53 kts | 262° |
| 2026-05-06 12:53 | 18.30477 | 109.41330 | 117 ft | 28 kts | 262° |
| 2026-05-06 12:53 | 18.30467 | 109.41247 | 119 ft | 12 kts | 263° |
| 2026-05-06 12:53 | 18.30477 | 109.41153 | 117 ft | 14 kts | 308° |
| 2026-05-06 12:54 | 18.30570 | 109.41133 | 120 ft | 15 kts | 357° |
| 2026-05-06 12:54 | 18.30683 | 109.41117 | 120 ft | 19 kts | 352° |
| 2026-05-06 12:54 | 18.30815 | 109.41109 | 121 ft | 11 kts | 356° |
| 2026-05-06 12:54 | 18.30852 | 109.41105 | 123 ft | 6 kts | 352° |
| 2026-05-06 12:55 | 18.30855 | 109.41104 | 121 ft | 0 kts | 352° |
| 2026-05-06 12:55 | 18.30856 | 109.41104 | 121 ft | 0 kts | 352° |
| 2026-05-06 12:57 | 18.30411 | 109.39360 | 118 ft | 0 kts | 262° |